createdAt,value
2023-03-07T00:01:08.651Z,1.98
2023-03-07T00:03:37.132Z,1.93
2023-03-07T00:06:09.073Z,1.90
2023-03-07T00:08:35.846Z,1.83
2023-03-07T00:11:06.688Z,1.84
2023-03-07T00:13:34.264Z,2.13
2023-03-07T00:16:09.030Z,1.96
2023-03-07T00:18:35.698Z,2.01
2023-03-07T00:21:06.342Z,2.09
2023-03-07T00:23:34.340Z,1.95
2023-03-07T00:26:09.081Z,2.14
2023-03-07T00:28:35.568Z,1.99
2023-03-07T00:31:07.705Z,1.85
2023-03-07T00:33:35.123Z,1.95
2023-03-07T00:36:04.757Z,1.93
2023-03-07T00:38:33.082Z,1.92
2023-03-07T00:41:17.362Z,1.86
2023-03-07T00:43:47.061Z,1.91
2023-03-07T00:46:15.444Z,1.99
2023-03-07T00:48:43.463Z,1.75
2023-03-07T00:51:12.319Z,2.03
2023-03-07T00:53:39.797Z,1.98
2023-03-07T00:56:19.753Z,1.99
2023-03-07T00:58:47.304Z,2.32
2023-03-07T01:01:16.521Z,2.14
2023-03-07T01:03:43.480Z,2.18
2023-03-07T01:06:15.759Z,2.09
2023-03-07T01:08:42.480Z,2.19
2023-03-07T01:11:11.636Z,2.08
2023-03-07T01:13:38.836Z,2.20
2023-03-07T01:16:21.121Z,2.04
2023-03-07T01:18:57.146Z,2.06
2023-03-07T01:21:29.869Z,2.13
2023-03-07T01:23:56.442Z,1.81
2023-03-07T01:26:25.631Z,1.97
2023-03-07T01:28:53.414Z,2.00
2023-03-07T01:31:20.051Z,2.06
2023-03-07T01:33:51.284Z,1.83
2023-03-07T01:36:25.454Z,2.10
2023-03-07T01:38:55.764Z,1.99
2023-03-07T01:41:22.724Z,2.09
2023-03-07T01:43:49.229Z,2.02
2023-03-07T01:46:18.456Z,2.19
2023-03-07T01:48:48.542Z,2.22
2023-03-07T01:51:15.202Z,2.13
2023-03-07T01:53:41.651Z,2.08
2023-03-07T01:56:09.082Z,2.32
2023-03-07T01:58:38.936Z,2.09
2023-03-07T02:01:09.239Z,2.04
2023-03-07T02:03:41.737Z,1.99
2023-03-07T02:06:10.718Z,1.99
2023-03-07T02:08:39.038Z,1.95
2023-03-07T02:11:06.957Z,1.93
2023-03-07T02:13:33.565Z,2.06
2023-03-07T02:16:02.249Z,2.10
2023-03-07T02:18:33.672Z,2.10
2023-03-07T02:21:19.255Z,2.07
2023-03-07T02:24:01.210Z,2.26
2023-03-07T02:26:30.681Z,2.18
2023-03-07T02:28:58.629Z,2.09
2023-03-07T02:31:25.547Z,2.17
2023-03-07T02:33:52.089Z,2.13
2023-03-07T02:36:29.199Z,2.00
2023-03-07T02:38:58.414Z,1.98
2023-03-07T02:41:28.826Z,2.02
2023-03-07T02:43:55.314Z,2.28
2023-03-07T02:46:21.796Z,1.97
2023-03-07T02:48:48.408Z,1.96
2023-03-07T02:51:16.914Z,2.02
2023-03-07T02:53:43.990Z,2.06
2023-03-07T02:56:11.282Z,2.01
2023-03-07T02:58:37.739Z,2.04
2023-03-07T03:01:04.482Z,2.05
2023-03-07T03:03:31.495Z,2.04
2023-03-07T03:05:58.018Z,1.87
2023-03-07T03:08:24.640Z,2.09
2023-03-07T03:10:55.382Z,2.14
2023-03-07T03:13:22.611Z,2.07
2023-03-07T03:15:49.205Z,2.21
2023-03-07T03:18:15.846Z,1.96
2023-03-07T03:20:42.552Z,1.95
2023-03-07T03:23:12.420Z,2.06
2023-03-07T03:25:40.325Z,2.18
2023-03-07T03:28:06.878Z,1.93
2023-03-07T03:30:35.981Z,1.93
2023-03-07T03:33:03.422Z,1.95
2023-03-07T03:35:30.137Z,2.09
2023-03-07T03:37:56.740Z,2.03
2023-03-07T03:40:23.314Z,2.12
2023-03-07T03:42:50.846Z,2.01
2023-03-07T03:45:17.400Z,2.05
2023-03-07T03:47:45.015Z,2.18
2023-03-07T03:50:11.787Z,1.99
2023-03-07T03:52:45.152Z,2.12
2023-03-07T03:55:12.100Z,1.87
2023-03-07T03:57:38.899Z,2.33
2023-03-07T04:00:08.542Z,2.14
2023-03-07T04:02:35.123Z,1.82
2023-03-07T04:05:01.680Z,1.94
2023-03-07T04:07:29.153Z,1.98
2023-03-07T04:09:56.697Z,2.14
2023-03-07T04:12:24.218Z,1.81
2023-03-07T04:14:50.628Z,1.93
2023-03-07T04:17:17.088Z,1.85
2023-03-07T04:19:43.500Z,1.89
2023-03-07T04:22:11.369Z,1.84
2023-03-07T04:24:37.880Z,1.83
2023-03-07T04:27:05.095Z,1.66
2023-03-07T04:29:37.461Z,1.69
2023-03-07T04:32:04.174Z,1.74
2023-03-07T04:34:30.738Z,1.72
2023-03-07T04:36:57.371Z,1.74
2023-03-07T04:39:23.820Z,1.69
2023-03-07T04:41:50.305Z,1.72
2023-03-07T04:44:17.245Z,1.81
2023-03-07T04:46:45.763Z,1.87
2023-03-07T04:49:14.305Z,1.67
2023-03-07T04:51:43.100Z,1.73
2023-03-07T04:54:10.676Z,1.50
2023-03-07T04:56:37.326Z,1.88
2023-03-07T04:59:04.830Z,1.53
2023-03-07T05:01:31.314Z,1.60
2023-03-07T05:03:57.924Z,1.61
2023-03-07T05:06:24.746Z,1.82
2023-03-07T05:08:52.293Z,1.63
2023-03-07T05:11:18.945Z,1.75
2023-03-07T05:13:46.460Z,1.56
2023-03-07T05:16:13.153Z,1.53
2023-03-07T05:18:40.717Z,1.40
2023-03-07T05:21:07.127Z,1.48
2023-03-07T05:23:33.565Z,1.29
2023-03-07T05:26:00.063Z,1.40
2023-03-07T05:28:26.542Z,1.35
2023-03-07T05:30:53.105Z,1.55
2023-03-07T05:33:20.240Z,1.47
2023-03-07T05:35:48.097Z,1.52
2023-03-07T05:38:15.031Z,1.53
2023-03-07T05:40:41.444Z,1.41
2023-03-07T05:43:07.972Z,1.62
2023-03-07T05:45:34.480Z,1.56
2023-03-07T05:48:01.397Z,1.44
2023-03-07T05:50:27.916Z,1.47
2023-03-07T05:52:54.654Z,1.43
2023-03-07T05:55:21.385Z,1.39
2023-03-07T05:57:47.910Z,1.31
2023-03-07T06:00:15.991Z,1.72
2023-03-07T06:02:42.710Z,1.39
2023-03-07T06:05:09.505Z,1.63
2023-03-07T06:07:35.922Z,1.67
2023-03-07T06:10:02.452Z,1.87
2023-03-07T06:12:29.927Z,1.56
2023-03-07T06:14:56.366Z,1.62
2023-03-07T06:17:22.803Z,1.55
2023-03-07T06:19:49.209Z,1.48
2023-03-07T06:22:15.731Z,1.74
2023-03-07T06:24:42.698Z,1.89
2023-03-07T06:27:09.100Z,1.92
2023-03-07T06:29:36.094Z,1.82
2023-03-07T06:32:02.501Z,1.92
2023-03-07T06:34:29.015Z,2.04
2023-03-07T06:36:55.577Z,1.96
2023-03-07T06:39:22.124Z,2.06
2023-03-07T06:41:54.652Z,2.09
2023-03-07T06:44:21.208Z,2.16
2023-03-07T06:46:47.687Z,2.05
2023-03-07T06:49:14.245Z,2.17
2023-03-07T06:51:41.705Z,2.07
2023-03-07T06:54:08.235Z,2.09
2023-03-07T06:56:35.934Z,2.06
2023-03-07T06:59:03.312Z,2.33
2023-03-07T07:01:35.929Z,2.24
2023-03-07T07:04:02.437Z,2.08
2023-03-07T07:06:30.044Z,1.96
2023-03-07T07:08:57.662Z,2.38
2023-03-07T07:11:25.035Z,2.22
2023-03-07T07:13:51.634Z,2.24
2023-03-07T07:16:18.782Z,2.22
2023-03-07T07:18:45.871Z,2.38
2023-03-07T07:21:12.448Z,2.33
2023-03-07T07:23:38.988Z,2.38
2023-03-07T07:26:05.748Z,2.38
2023-03-07T07:28:34.346Z,2.25
2023-03-07T07:31:00.850Z,2.42
2023-03-07T07:33:27.686Z,2.20
2023-03-07T07:35:54.256Z,2.45
2023-03-07T07:38:20.694Z,2.39
2023-03-07T07:40:47.234Z,2.07
2023-03-07T07:43:17.744Z,2.37
2023-03-07T07:45:44.500Z,2.24
2023-03-07T07:48:11.074Z,2.42
2023-03-07T07:50:37.782Z,2.53
2023-03-07T07:53:04.722Z,2.48
2023-03-07T07:55:31.544Z,2.59
2023-03-07T07:57:58.092Z,2.61
2023-03-07T08:00:24.851Z,2.91
2023-03-07T08:02:52.393Z,2.77
2023-03-07T08:05:20.568Z,2.86
2023-03-07T08:07:47.251Z,3.00
2023-03-07T08:10:17.678Z,2.91
2023-03-07T08:12:47.701Z,3.07
2023-03-07T08:15:17.058Z,2.85
2023-03-07T08:17:44.361Z,2.96
2023-03-07T08:20:11.258Z,3.09
2023-03-07T08:22:39.530Z,2.94
2023-03-07T08:25:08.015Z,3.01
2023-03-07T08:27:34.479Z,3.20
2023-03-07T08:30:01.538Z,3.30
2023-03-07T08:32:31.317Z,3.24
2023-03-07T08:34:57.827Z,3.08
2023-03-07T08:37:24.358Z,3.15
2023-03-07T08:39:50.987Z,3.09
2023-03-07T08:42:18.611Z,3.12
2023-03-07T08:44:45.110Z,3.31
2023-03-07T08:47:13.405Z,3.45
2023-03-07T08:49:40.724Z,3.56
2023-03-07T08:52:07.292Z,3.59
2023-03-07T08:54:33.893Z,3.61
2023-03-07T08:57:00.657Z,3.39
2023-03-07T08:59:27.293Z,3.48
2023-03-07T09:01:54.071Z,3.58
2023-03-07T09:04:20.558Z,3.28
2023-03-07T09:06:47.062Z,3.62
2023-03-07T09:09:13.558Z,3.41
2023-03-07T09:11:40.062Z,3.37
2023-03-07T09:14:06.702Z,3.26
2023-03-07T09:16:33.159Z,3.26
2023-03-07T09:18:59.710Z,3.56
2023-03-07T09:21:26.196Z,3.48
2023-03-07T09:23:52.789Z,3.53
2023-03-07T09:26:19.392Z,3.56
2023-03-07T09:28:46.473Z,3.53
2023-03-07T09:31:15.432Z,3.74
2023-03-07T09:33:43.515Z,3.54
2023-03-07T09:36:12.775Z,3.57
2023-03-07T09:38:39.771Z,3.70
2023-03-07T09:41:42.512Z,3.81
2023-03-07T09:44:41.019Z,3.91
2023-03-07T09:47:25.654Z,4.09
2023-03-07T09:49:53.635Z,4.07
2023-03-07T09:52:23.547Z,4.02
2023-03-07T09:54:56.733Z,3.84
2023-03-07T09:57:28.630Z,4.04
2023-03-07T09:59:56.700Z,4.09
2023-03-07T10:02:32.739Z,4.27
2023-03-07T10:05:08.295Z,4.17
2023-03-07T10:07:35.717Z,4.09
2023-03-07T10:10:12.163Z,4.29
2023-03-07T10:12:53.131Z,4.16
2023-03-07T10:15:45.819Z,4.47
2023-03-07T10:18:27.323Z,4.66
2023-03-07T10:21:12.293Z,4.63
2023-03-07T10:23:59.962Z,4.56
2023-03-07T10:26:34.625Z,4.80
2023-03-07T10:29:15.132Z,4.67
2023-03-07T10:32:04.670Z,4.77
2023-03-07T10:34:32.898Z,4.92
2023-03-07T10:37:10.845Z,4.87
2023-03-07T10:39:48.791Z,4.71
2023-03-07T10:42:17.654Z,4.84
2023-03-07T10:44:46.088Z,5.02
2023-03-07T10:47:24.339Z,4.82
2023-03-07T10:49:55.378Z,4.90
2023-03-07T10:52:33.923Z,4.89
2023-03-07T10:55:36.681Z,4.86
2023-03-07T10:58:29.963Z,5.07
2023-03-07T11:01:08.659Z,5.32
2023-03-07T11:03:58.224Z,5.16
2023-03-07T11:06:27.874Z,5.25
2023-03-07T11:08:56.210Z,5.38
2023-03-07T11:11:25.564Z,5.51
2023-03-07T11:14:18.997Z,5.56
2023-03-07T11:16:57.016Z,5.77
2023-03-07T11:19:28.825Z,6.30
2023-03-07T11:21:58.816Z,6.64
2023-03-07T11:24:27.747Z,6.69
2023-03-07T11:26:56.347Z,6.63
2023-03-07T11:29:22.923Z,6.29
2023-03-07T11:32:15.455Z,6.16
2023-03-07T11:34:52.787Z,6.12
2023-03-07T11:37:34.248Z,6.16
2023-03-07T11:40:12.705Z,6.62
2023-03-07T11:42:50.174Z,6.54
2023-03-07T11:45:33.395Z,6.33
2023-03-07T11:48:34.492Z,6.42
2023-03-07T11:51:03.320Z,6.37
2023-03-07T11:53:43.557Z,6.27
2023-03-07T11:56:35.430Z,6.19
2023-03-07T11:59:14.849Z,6.22
2023-03-07T12:01:41.238Z,6.11
2023-03-07T12:04:45.876Z,5.78
2023-03-07T12:07:15.201Z,5.46
2023-03-07T12:09:51.513Z,5.59
2023-03-07T12:12:23.903Z,5.39
2023-03-07T12:15:15.074Z,5.46
2023-03-07T12:17:56.690Z,5.80
2023-03-07T12:20:47.185Z,6.15
2023-03-07T12:23:25.616Z,5.87
2023-03-07T12:25:56.135Z,5.91
2023-03-07T12:28:32.518Z,6.02
2023-03-07T12:31:02.915Z,5.90
2023-03-07T12:33:54.097Z,5.84
2023-03-07T12:36:46.362Z,5.72
2023-03-07T12:39:18.063Z,5.81
2023-03-07T12:41:59.620Z,5.80
2023-03-07T12:44:40.034Z,5.91
2023-03-07T12:47:44.620Z,5.91
2023-03-07T12:50:17.086Z,5.89
2023-03-07T12:53:10.467Z,5.70
2023-03-07T12:55:43.168Z,5.89
2023-03-07T12:58:41.858Z,5.78
2023-03-07T13:01:17.632Z,5.76
2023-03-07T13:03:44.384Z,5.90
2023-03-07T13:06:18.271Z,6.00
2023-03-07T13:08:47.952Z,5.99
2023-03-07T13:11:22.874Z,5.71
2023-03-07T13:13:53.652Z,5.97
2023-03-07T13:16:34.333Z,5.61
2023-03-07T13:19:36.431Z,5.69
2023-03-07T13:22:24.953Z,5.89
2023-03-07T13:24:56.599Z,5.67
2023-03-07T13:27:41.047Z,5.84
2023-03-07T13:30:10.643Z,5.75
2023-03-07T13:32:52.126Z,5.91
2023-03-07T13:35:24.531Z,5.67
2023-03-07T13:37:56.999Z,5.84
2023-03-07T13:40:35.564Z,6.09
2023-03-07T13:43:03.894Z,5.72
2023-03-07T13:45:39.131Z,5.82
2023-03-07T13:48:30.485Z,5.92
2023-03-07T13:50:56.986Z,5.84
2023-03-07T13:53:45.429Z,5.52
2023-03-07T13:56:19.857Z,5.71
2023-03-07T13:58:47.472Z,5.93
2023-03-07T14:01:18.467Z,6.01
2023-03-07T14:03:51.189Z,5.82
2023-03-07T14:06:22.263Z,5.83
2023-03-07T14:08:50.781Z,5.72
2023-03-07T14:11:42.213Z,5.54
2023-03-07T14:14:35.802Z,5.63
2023-03-07T14:17:02.131Z,5.54
2023-03-07T14:19:50.261Z,5.45
2023-03-07T14:22:58.005Z,5.40
2023-03-07T14:25:31.765Z,5.53
2023-03-07T14:28:05.713Z,5.77
2023-03-07T14:30:34.109Z,5.92
2023-03-07T14:33:01.657Z,5.69
2023-03-07T14:35:39.219Z,5.62
2023-03-07T14:38:07.979Z,5.56
2023-03-07T14:40:47.478Z,5.48
2023-03-07T14:43:32.531Z,5.46
2023-03-07T14:46:40.815Z,5.16
2023-03-07T14:49:32.640Z,5.34
2023-03-07T14:52:02.195Z,5.35
2023-03-07T14:54:33.272Z,5.35
2023-03-07T14:57:03.147Z,5.15
2023-03-07T14:59:29.746Z,5.04
2023-03-07T15:01:57.251Z,5.25
2023-03-07T15:04:27.959Z,5.47
2023-03-07T15:07:00.841Z,5.48
2023-03-07T15:09:34.375Z,5.47
2023-03-07T15:12:16.832Z,5.46
2023-03-07T15:14:49.379Z,5.41
2023-03-07T15:17:28.669Z,5.33
2023-03-07T15:20:17.036Z,5.57
2023-03-07T15:22:43.631Z,5.75
2023-03-07T15:25:22.352Z,5.83
2023-03-07T15:28:05.816Z,6.01
2023-03-07T15:30:34.960Z,5.89
2023-03-07T15:33:13.806Z,5.85
2023-03-07T15:35:40.395Z,5.38
2023-03-07T15:38:15.371Z,5.70
2023-03-07T15:40:43.204Z,5.56
2023-03-07T15:43:39.232Z,6.01
2023-03-07T15:46:17.560Z,5.63
2023-03-07T15:48:52.740Z,5.85
2023-03-07T15:51:25.207Z,5.51
2023-03-07T15:54:25.622Z,5.46
2023-03-07T15:56:59.446Z,5.44
2023-03-07T15:59:37.034Z,5.18
2023-03-07T16:02:31.905Z,5.32
2023-03-07T16:05:01.768Z,4.97
2023-03-07T16:07:28.887Z,5.22
2023-03-07T16:09:57.941Z,5.27
2023-03-07T16:12:25.328Z,5.32
2023-03-07T16:14:54.898Z,5.15
2023-03-07T16:17:31.829Z,5.05
2023-03-07T16:19:58.677Z,5.20
2023-03-07T16:22:25.578Z,5.11
2023-03-07T16:24:52.169Z,5.08
2023-03-07T16:27:21.753Z,4.82
2023-03-07T16:29:50.428Z,4.80
2023-03-07T16:32:22.776Z,4.66
2023-03-07T16:34:55.077Z,4.93
2023-03-07T16:37:21.752Z,4.85
2023-03-07T16:39:48.272Z,4.71
2023-03-07T16:42:23.156Z,4.38
2023-03-07T16:44:51.660Z,4.64
2023-03-07T16:47:18.295Z,4.46
2023-03-07T16:49:46.629Z,4.59
2023-03-07T16:52:15.525Z,4.57
2023-03-07T16:54:41.995Z,4.58
2023-03-07T16:57:15.707Z,4.58
2023-03-07T16:59:45.525Z,4.26
2023-03-07T17:02:16.291Z,4.35
2023-03-07T17:04:44.364Z,4.26
2023-03-07T17:07:23.473Z,4.37
2023-03-07T17:09:50.808Z,4.20
2023-03-07T17:12:20.561Z,4.37
2023-03-07T17:14:48.204Z,4.28
2023-03-07T17:17:23.899Z,4.63
2023-03-07T17:19:57.104Z,4.22
2023-03-07T17:22:27.641Z,4.37
2023-03-07T17:24:55.039Z,4.51
2023-03-07T17:27:21.950Z,4.74
2023-03-07T17:29:52.328Z,4.35
2023-03-07T17:32:18.844Z,4.40
2023-03-07T17:34:45.340Z,4.30
2023-03-07T17:37:12.633Z,4.43
2023-03-07T17:39:40.020Z,4.43
2023-03-07T17:42:07.308Z,4.48
2023-03-07T17:44:33.780Z,4.45
2023-03-07T17:47:00.920Z,4.20
2023-03-07T17:49:36.858Z,4.35
2023-03-07T17:52:06.187Z,4.04
2023-03-07T17:54:33.282Z,4.32
2023-03-07T17:57:01.636Z,4.19
2023-03-07T17:59:31.475Z,4.26
2023-03-07T18:01:58.164Z,4.28
2023-03-07T18:04:28.491Z,4.29
2023-03-07T18:06:54.957Z,4.13
2023-03-07T18:09:23.040Z,4.23
2023-03-07T18:11:49.729Z,4.17
2023-03-07T18:14:16.254Z,4.20
2023-03-07T18:16:43.932Z,4.23
2023-03-07T18:19:25.432Z,4.17
2023-03-07T18:21:52.448Z,4.17
2023-03-07T18:24:21.653Z,4.26
2023-03-07T18:26:51.492Z,4.27
2023-03-07T18:29:19.476Z,4.37
2023-03-07T18:31:46.799Z,4.23
2023-03-07T18:34:15.228Z,3.89
2023-03-07T18:36:51.713Z,4.02
2023-03-07T18:39:19.934Z,3.98
2023-03-07T18:41:46.594Z,4.07
2023-03-07T18:44:13.178Z,4.17
2023-03-07T18:46:39.682Z,4.23
2023-03-07T18:49:08.203Z,4.11
2023-03-07T18:51:35.658Z,4.02
2023-03-07T18:54:03.581Z,3.90
2023-03-07T18:56:30.642Z,3.78
2023-03-07T18:59:01.555Z,3.87
2023-03-07T19:01:35.958Z,4.19
2023-03-07T19:04:05.321Z,4.06
2023-03-07T19:06:35.833Z,3.96
2023-03-07T19:09:03.709Z,3.78
2023-03-07T19:11:31.209Z,3.92
2023-03-07T19:13:59.672Z,4.06
2023-03-07T19:16:28.431Z,4.03
2023-03-07T19:18:58.247Z,3.78
2023-03-07T19:21:28.907Z,3.88
2023-03-07T19:23:57.279Z,3.93
2023-03-07T19:26:24.240Z,3.96
2023-03-07T19:28:52.770Z,3.75
2023-03-07T19:31:25.471Z,3.80
2023-03-07T19:33:55.318Z,3.94
2023-03-07T19:36:28.096Z,3.78
2023-03-07T19:38:58.883Z,3.70
2023-03-07T19:41:27.220Z,3.73
2023-03-07T19:43:55.642Z,3.58
2023-03-07T19:46:22.689Z,3.67
2023-03-07T19:48:50.493Z,3.67
2023-03-07T19:51:24.504Z,3.58
2023-03-07T19:53:51.743Z,3.62
2023-03-07T19:56:22.450Z,3.56
2023-03-07T19:58:49.528Z,3.65
2023-03-07T20:01:19.345Z,3.45
2023-03-07T20:03:47.741Z,3.44
2023-03-07T20:06:29.554Z,3.47
2023-03-07T20:08:56.775Z,3.53
2023-03-07T20:11:28.291Z,3.67
2023-03-07T20:13:56.547Z,3.47
2023-03-07T20:16:24.642Z,3.44
2023-03-07T20:18:52.763Z,3.43
2023-03-07T20:21:21.621Z,3.47
2023-03-07T20:23:48.985Z,3.53
2023-03-07T20:26:22.508Z,3.42
2023-03-07T20:28:57.044Z,3.42
2023-03-07T20:31:25.948Z,3.67
2023-03-07T20:33:52.646Z,3.65
2023-03-07T20:36:27.602Z,3.45
2023-03-07T20:38:57.143Z,3.51
2023-03-07T20:41:27.862Z,3.52
2023-03-07T20:44:00.009Z,3.61
2023-03-07T20:46:27.088Z,3.53
2023-03-07T20:48:55.549Z,3.51
2023-03-07T20:51:27.344Z,3.54
2023-03-07T20:53:59.862Z,3.58
2023-03-07T20:56:28.847Z,3.33
2023-03-07T20:58:56.770Z,3.19
2023-03-07T21:01:25.362Z,3.35
2023-03-07T21:04:08.578Z,3.39
2023-03-07T21:06:36.956Z,3.44
2023-03-07T21:09:07.988Z,3.47
2023-03-07T21:11:36.670Z,3.40
2023-03-07T21:14:03.759Z,3.33
2023-03-07T21:16:30.900Z,3.37
2023-03-07T21:19:02.098Z,3.44
2023-03-07T21:21:30.697Z,3.41
2023-03-07T21:23:57.713Z,3.38
2023-03-07T21:26:27.636Z,3.46
2023-03-07T21:29:00.474Z,3.42
2023-03-07T21:31:29.528Z,3.46
2023-03-07T21:33:59.230Z,3.53
2023-03-07T21:36:27.205Z,3.38
2023-03-07T21:38:54.406Z,3.77
2023-03-07T21:41:27.693Z,3.47
2023-03-07T21:43:55.459Z,3.49
2023-03-07T21:46:23.006Z,3.48
2023-03-07T21:48:49.898Z,3.39
2023-03-07T21:51:18.467Z,3.38
2023-03-07T21:53:45.307Z,3.60
2023-03-07T21:56:13.967Z,3.61
2023-03-07T21:58:40.896Z,3.44
2023-03-07T22:01:17.359Z,3.52
2023-03-07T22:03:44.487Z,3.46
2023-03-07T22:06:14.036Z,3.62
2023-03-07T22:08:41.296Z,3.55
2023-03-07T22:11:09.630Z,3.47
2023-03-07T22:13:39.769Z,3.51
2023-03-07T22:16:09.784Z,3.45
2023-03-07T22:18:36.740Z,3.50
2023-03-07T22:21:14.411Z,3.61
2023-03-07T22:23:41.649Z,3.63
2023-03-07T22:26:12.265Z,3.41
2023-03-07T22:28:40.650Z,3.54
2023-03-07T22:31:12.609Z,3.66
2023-03-07T22:33:39.710Z,3.50
2023-03-07T22:36:08.691Z,3.65
2023-03-07T22:38:35.224Z,3.60
2023-03-07T22:41:22.962Z,3.72
2023-03-07T22:43:49.506Z,3.62
2023-03-07T22:46:15.965Z,3.76
2023-03-07T22:48:44.530Z,3.75
2023-03-07T22:51:17.725Z,3.79
2023-03-07T22:53:44.565Z,3.87
2023-03-07T22:56:20.259Z,3.82
2023-03-07T22:58:46.862Z,3.75
2023-03-07T23:01:28.170Z,3.78
2023-03-07T23:03:56.593Z,3.91
2023-03-07T23:06:25.955Z,3.70
2023-03-07T23:08:53.449Z,3.69
2023-03-07T23:11:23.916Z,3.84
2023-03-07T23:13:50.724Z,3.90
2023-03-07T23:16:21.553Z,3.80
2023-03-07T23:18:54.758Z,3.70
2023-03-07T23:21:29.871Z,3.57
2023-03-07T23:23:57.097Z,3.61
2023-03-07T23:26:29.977Z,3.65
2023-03-07T23:28:58.231Z,3.78
2023-03-07T23:31:28.286Z,3.92
2023-03-07T23:34:03.513Z,3.92
2023-03-07T23:36:30.915Z,3.94
2023-03-07T23:38:58.709Z,3.76
2023-03-07T23:41:27.043Z,3.80
2023-03-07T23:43:55.365Z,3.93
2023-03-07T23:46:22.437Z,3.88
2023-03-07T23:48:50.024Z,3.77
2023-03-07T23:51:16.763Z,3.94
2023-03-07T23:53:44.232Z,3.87
2023-03-07T23:56:12.493Z,4.15
2023-03-07T23:58:48.091Z,3.99
